Latest Weather Observations for Perisher Valley

IDN60901

Issued at 11:41 pm EDT Monday 2 March 2015 (issued every 10 minutes, with the page automatically refreshed every 10 minutes)

About weather observations | Map of Canberra area stations | Latest observations for Canberra area | Other Formats
Station Details ID: 071075 Name: PERISHER VALLEY AWS Lat: -36.41 Lon: 148.41 Height: 1738.0 m
Data from the previous 72 hours. | See also: Recent months at Perisher Valley
Date/Time
EDT
Tmp

°C
App
Tmp
°C
Dew
Point
°C
Rel
Hum
%
Delta-T

°C
Wind Press
QNH
hPa
Press
MSL
hPa
Rain
since
9 am
mm
Dir
 
Spd
km/h
Gust
km/h
Spd
kts
Gust
kts
02/11:30pm 12.9 7.8 4.1 55 4.4 WNW 20 32 11 17 - - 0.0
02/11:00pm 12.6 7.1 4.1 56 4.3 W 22 33 12 18 - - 0.0
02/10:30pm 12.5 8.4 4.2 57 4.2 W 15 26 8 14 - - 0.0
02/10:00pm 12.6 7.5 4.3 57 4.2 W 20 33 11 18 - - 0.0
02/09:30pm 11.8 9.5 5.0 63 3.4 WSW 6 13 3 7 - - 0.0
02/09:00pm 9.2 7.3 5.0 75 2.1 NE 4 11 2 6 - - 0.0
02/08:30pm 7.9 6.3 4.5 79 1.7 E 2 4 1 2 - - 0.0
02/08:00pm 9.9 8.1 5.3 73 2.3 SW 4 7 2 4 - - 0.0
02/07:30pm 12.3 10.6 5.7 64 3.4 W 4 9 2 5 - - 0.0
02/07:00pm 13.7 12.6 6.8 63 3.7 SE 2 4 1 2 - - 0.0
02/06:30pm 15.1 13.1 6.9 58 4.4 E 7 11 4 6 - - 0.0
02/06:00pm 15.8 13.8 7.1 56 4.7 E 7 11 4 6 - - 0.0
02/05:30pm 16.1 13.7 7.1 55 4.9 E 9 15 5 8 - - 0.0
02/05:00pm 15.7 13.7 6.4 54 5.0 SE 6 11 3 6 - - 0.0
02/04:30pm 17.7 15.5 7.7 52 5.5 SE 9 17 5 9 - - 0.0
02/04:00pm 16.5 13.9 6.3 51 5.5 ESE 9 19 5 10 - - 0.0
02/03:30pm 17.3 14.7 5.9 47 6.1 ENE 9 17 5 9 - - 0.0
02/03:00pm 18.0 15.2 6.8 48 6.1 SE 11 19 6 10 - - 0.0
02/02:30pm 17.6 14.6 5.9 46 6.3 S 11 22 6 12 - - 0.0
02/02:00pm 18.4 14.0 0.1 29 8.8 NNE 13 22 7 12 - - 0.0
02/01:30pm 19.4 16.0 -0.6 26 9.6 NNW 7 20 4 11 - - 0.0
02/01:00pm 19.0 14.2 -10.0 13 11.5 WNW 9 20 5 11 - - 0.0
02/12:30pm 19.4 15.2 -1.1 25 9.7 NE 11 19 6 10 - - 0.0
02/12:00pm 18.2 14.3 -5.1 20 10.1 NW 7 26 4 14 - - 0.0
02/11:30am 17.4 13.4 0.6 32 8.1 NE 11 17 6 9 - - 0.0
02/11:00am 16.4 12.2 -0.8 31 8.0 NE 11 19 6 10 - - 0.0
02/10:30am 14.2 9.8 -2.7 31 7.4 NE 11 17 6 9 - - 0.0
02/10:00am 12.4 7.3 -5.1 29 7.2 NNE 13 17 7 9 - - 0.0
02/09:30am 10.3 4.9 -7.9 27 6.8 NNE 13 17 7 9 - - 0.0
02/09:00am 9.0 4.8 -4.2 39 5.3 NE 9 15 5 8 - - 5.6
02/08:30am 3.9 1.6 -2.3 64 2.5 CALM 0 2 0 1 - - 5.6
02/08:00am -0.1 -2.5 -3.0 81 1.1 CALM 0 2 0 1 - - 5.6
02/07:30am -2.4 -5.5 -6.4 74 1.2 WSW 2 6 1 3 - - 5.6
02/07:00am -4.0 -7.4 -9.0 68 1.4 WSW 2 6 1 3 - - 5.6
02/06:30am -4.5 -7.8 -8.6 73 1.1 WSW 2 6 1 3 - - 5.6
02/06:00am -3.8 -6.7 -7.6 75 1.1 CALM 0 2 0 1 - - 5.6
02/05:30am -3.2 -6.3 -6.1 80 0.8 SSW 2 7 1 4 - - 5.6
02/05:00am -2.9 -6.6 -4.2 91 0.3 WSW 6 7 3 4 - - 5.6
02/04:30am -2.8 -6.2 -5.1 84 0.7 NE 4 11 2 6 - - 5.6
02/04:00am -3.5 -7.0 -6.4 80 0.8 SW 4 9 2 5 - - 5.6
02/03:30am -3.5 -7.3 -6.0 83 0.7 SW 6 9 3 5 - - 5.6
02/03:00am -2.8 -6.3 -6.1 78 1.0 WSW 4 7 2 4 - - 5.6
02/02:30am -2.0 -5.8 -5.1 79 1.0 WSW 6 7 3 4 - - 5.6
02/02:00am -0.5 -4.1 -2.4 87 0.7 WSW 7 13 4 7 - - 5.6
02/01:30am -0.7 -3.8 -2.6 87 0.7 WSW 4 9 2 5 - - 5.6
02/01:00am 1.1 -1.3 -0.2 91 0.5 SW 2 7 1 4 - - 5.6
02/12:30am 2.2 0.0 1.2 93 0.4 SSW 2 6 1 3 - - 5.6
02/12:00am 2.8 0.8 2.2 96 0.3 NNE 2 4 1 2 - - 5.6
 
Date/Time
EDT
Tmp

°C
App
Tmp
°C
Dew
Point
°C
Rel
Hum
%
Delta-T

°C
Wind Press
QNH
hPa
Press
MSL
hPa
Rain
since
9 am
mm
Dir
 
Spd
km/h
Gust
km/h
Spd
kts
Gust
kts
01/11:30pm 2.4 0.3 2.0 97 0.2 WSW 2 6 1 3 - - 5.6
01/11:00pm 1.0 -1.4 -0.1 92 0.5 WSW 2 4 1 2 - - 5.6
01/10:30pm 1.6 -0.8 0.0 89 0.7 WNW 2 2 1 1 - - 5.6
01/10:00pm 2.8 -0.6 1.9 94 0.4 SW 9 17 5 9 - - 5.6
01/09:30pm 2.8 0.3 1.5 91 0.6 SW 4 7 2 4 - - 5.6
01/09:00pm 3.4 0.9 1.3 86 0.9 WSW 4 9 2 5 - - 5.6
01/08:30pm 4.9 2.7 3.4 90 0.7 SW 4 11 2 6 - - 5.6
01/08:00pm 5.5 3.4 4.0 90 0.7 SSW 4 9 2 5 - - 5.6
01/07:30pm 6.7 4.2 4.9 88 0.9 SW 7 19 4 10 - - 5.6
01/07:00pm 7.8 5.5 5.8 87 1.0 SW 7 20 4 11 - - 5.6
01/06:30pm 8.9 6.5 7.0 88 1.0 SSW 9 19 5 10 - - 5.6
01/06:00pm 8.6 4.4 7.4 92 0.6 SSW 19 28 10 15 - - 5.6
01/05:30pm 9.6 6.9 7.4 86 1.2 SW 11 24 6 13 - - 5.6
01/05:00pm 12.1 10.5 8.9 81 1.8 SW 7 20 4 11 - - 5.6
01/04:30pm 13.3 11.6 9.7 79 2.0 SW 9 24 5 13 - - 5.6
01/04:00pm 15.5 14.1 9.4 67 3.4 WSW 7 22 4 12 - - 5.6
01/03:30pm 13.9 12.8 9.9 77 2.3 WSW 6 22 3 12 - - 5.6
01/03:00pm 13.2 10.5 7.4 68 3.1 W 11 33 6 18 - - 5.6
01/02:30pm 14.7 11.3 7.7 63 3.8 W 15 32 8 17 - - 5.6
01/02:00pm 14.5 10.9 6.8 60 4.1 W 15 32 8 17 - - 5.6
01/01:30pm 13.9 10.1 9.1 73 2.7 WNW 19 30 10 16 - - 5.6
01/01:00pm 13.2 9.7 8.7 74 2.5 WNW 17 39 9 21 - - 5.6
01/12:30pm 12.6 9.3 9.6 82 1.7 W 17 32 9 17 - - 5.6
01/12:00pm 10.9 8.2 10.4 97 0.3 WNW 15 32 8 17 - - 5.6
01/11:30am 11.0 9.4 10.2 95 0.4 W 9 19 5 10 - - 5.6
01/11:00am 11.3 8.9 10.2 93 0.6 WNW 13 30 7 16 - - 5.6
01/10:30am 11.0 9.2 9.6 91 0.8 W 9 35 5 19 - - 5.6
01/10:00am 12.0 9.6 10.2 89 1.0 W 13 30 7 16 - - 4.8
01/09:30am 12.7 9.9 10.1 84 1.5 W 15 33 8 18 - - 1.6
01/09:00am 13.1 10.1 9.2 77 2.2 W 15 32 8 17 - - 0.6
01/08:30am 13.5 8.6 8.6 72 2.7 W 24 48 13 26 - - 0.6
01/08:03am 12.6 6.8 8.1 74 2.4 WNW 28 46 15 25 - - 0.6
01/08:00am 12.5 7.1 8.0 74 2.4 WNW 26 46 14 25 - - 0.6
01/07:35am 12.9 7.1 7.8 71 2.8 W 28 50 15 27 - - 0.4
01/07:30am 12.8 8.0 7.5 70 2.8 W 22 46 12 25 - - 0.4
01/07:00am 11.5 9.4 6.6 72 2.6 W 7 26 4 14 - - 0.4
01/06:30am 11.1 9.2 6.6 74 2.3 NNW 6 17 3 9 - - 0.4
01/06:00am 11.4 7.4 6.5 72 2.6 WNW 17 30 9 16 - - 0.4
01/05:30am 13.5 10.1 4.1 53 4.7 NW 11 28 6 15 - - 0.0
01/05:00am 14.0 10.5 3.5 49 5.2 W 11 24 6 13 - - 0.0
01/04:30am 14.6 10.5 2.2 43 6.0 W 13 33 7 18 - - 0.0
01/04:00am 16.5 11.3 0.2 33 7.7 W 17 43 9 23 - - 0.0
01/03:30am 17.0 12.6 0.2 32 8.0 WNW 13 43 7 23 - - 0.0
01/03:00am 16.9 13.8 0.1 32 8.0 W 6 20 3 11 - - 0.0
01/02:30am 16.6 13.6 0.7 34 7.6 WNW 6 19 3 10 - - 0.0
01/02:00am 13.9 11.3 0.9 41 6.1 SE 4 9 2 5 - - 0.0
01/01:30am 12.7 10.7 2.3 49 5.0 NW 2 7 1 4 - - 0.0
01/01:00am 10.7 8.7 2.5 57 3.9 W 2 7 1 4 - - 0.0
01/12:30am 10.6 8.5 3.9 63 3.3 W 4 9 2 5 - - 0.0
01/12:00am 11.4 9.4 4.2 61 3.6 W 4 7 2 4 - - 0.0
 
Date/Time
EDT
Tmp

°C
App
Tmp
°C
Dew
Point
°C
Rel
Hum
%
Delta-T

°C
Wind Press
QNH
hPa
Press
MSL
hPa
Rain
since
9 am
mm
Dir
 
Spd
km/h
Gust
km/h
Spd
kts
Gust
kts
28/11:30pm 12.5 11.2 4.2 57 4.2 CALM 0 4 0 2 - - 0.0
28/11:00pm 13.7 12.2 4.8 55 4.5 W 2 7 1 4 - - 0.0
28/10:30pm 15.3 12.8 5.0 50 5.3 WSW 7 13 4 7 - - 0.0
28/10:00pm 13.3 11.7 6.4 63 3.6 SW 4 9 2 5 - - 0.0
28/09:30pm 11.6 10.1 6.9 73 2.5 WSW 4 11 2 6 - - 0.0
28/09:00pm 10.8 9.6 6.6 75 2.2 S 2 6 1 3 - - 0.0
28/08:30pm 11.7 10.5 6.6 71 2.7 WNW 2 6 1 3 - - 0.0
28/08:00pm 14.9 13.4 6.7 58 4.4 NW 4 6 2 3 - - 0.0
28/07:30pm 16.6 15.1 7.0 53 5.2 WNW 4 11 2 6 - - 0.0
28/07:00pm 17.5 15.7 7.0 50 5.7 W 6 15 3 8 - - 0.0
28/06:30pm 18.1 15.1 7.5 50 5.9 WNW 13 22 7 12 - - 0.0
28/06:00pm 17.8 15.3 8.1 53 5.4 WNW 11 30 6 16 - - 0.0
28/05:30pm 17.6 16.5 9.8 60 4.5 NNW 6 20 3 11 - - 0.0
28/05:00pm 17.6 15.7 9.2 58 4.8 WNW 9 24 5 13 - - 0.0
28/04:30pm 17.2 14.5 8.9 58 4.7 W 13 28 7 15 - - 0.0
28/04:00pm 17.2 13.0 8.4 56 4.9 W 20 35 11 19 - - 0.0
28/03:30pm 17.3 14.0 8.2 55 5.1 W 15 30 8 16 - - 0.0
28/03:00pm 17.3 12.3 6.5 49 5.8 W 22 41 12 22 - - 0.0
28/02:30pm 17.9 13.2 7.6 51 5.7 W 22 44 12 24 - - 0.0
28/02:00pm 16.5 11.5 8.0 57 4.7 W 24 41 13 22 - - 0.0
28/01:30pm 17.4 13.8 8.3 55 5.1 W 17 32 9 17 - - 0.0
28/01:00pm 17.6 12.9 7.6 52 5.5 W 22 39 12 21 - - 0.0
28/12:30pm 17.2 12.6 8.1 55 5.1 W 22 39 12 21 - - 0.0
28/12:00pm 16.0 11.7 7.2 56 4.8 W 19 35 10 19 - - 0.0
28/11:30am 16.2 12.6 6.9 54 5.0 W 15 28 8 15 - - 0.0
28/11:00am 15.4 9.1 5.9 53 5.0 W 28 41 15 22 - - 0.0
28/10:30am 15.6 10.5 4.3 47 5.8 W 20 33 11 18 - - 0.0
28/10:00am 17.2 16.6 7.5 53 5.3 CALM 0 4 0 2 - - 0.0
28/09:30am 14.4 13.0 5.5 55 4.6 SSE 2 7 1 4 - - 0.0
28/09:00am 13.1 12.3 6.5 64 3.5 CALM 0 2 0 1 - - 0.0
28/08:30am 12.5 10.9 4.5 58 4.0 W 2 4 1 2 - - 0.0
28/08:00am 12.9 10.1 3.0 51 4.8 WSW 7 19 4 10 - - 0.0
28/07:30am 14.3 8.8 1.6 42 6.1 W 20 37 11 20 - - 0.0
28/07:00am 14.1 7.8 1.7 43 6.0 W 24 39 13 21 - - 0.0
28/06:30am 13.8 8.6 2.4 46 5.6 W 19 32 10 17 - - 0.0
28/06:00am 13.8 8.0 2.4 46 5.6 W 22 35 12 19 - - 0.0
28/05:30am 13.9 7.7 2.2 45 5.7 W 24 35 13 19 - - 0.0
28/05:00am 13.7 7.9 2.3 46 5.5 W 22 39 12 21 - - 0.0
28/04:30am 13.7 7.3 3.2 49 5.2 W 26 37 14 20 - - 0.0
28/04:00am 13.6 8.6 4.5 54 4.6 W 20 33 11 18 - - 0.0
28/03:30am 13.6 8.7 4.2 53 4.7 W 19 32 10 17 - - 0.0
28/03:00am 13.0 9.7 6.4 64 3.5 W 13 24 7 13 - - 0.0
28/02:30am 13.0 10.2 6.8 66 3.3 W 11 22 6 12 - - 0.0
28/02:00am 12.8 9.5 6.6 66 3.3 W 13 20 7 11 - - 0.0
28/01:30am 7.8 6.5 6.1 89 0.9 NE 2 7 1 4 - - 0.0
28/01:00am 7.1 6.1 5.4 89 0.8 CALM 0 2 0 1 - - 0.0
28/12:30am 7.1 6.2 5.9 92 0.6 CALM 0 4 0 2 - - 0.0
28/12:00am 6.0 4.4 4.5 90 0.7 SE 2 4 1 2 - - 0.0

Latest Capital City Observations: Canberra | Sydney | Melbourne | Brisbane | Adelaide | Perth | Hobart | Darwin

Other Formats:

Comma delimited format used in spreadsheet applications
http://www.bom.gov.au/fwo/IDN60903/IDN60903.94915.axf

JavaScript Object Notation format (JSON) in row-major order
http://www.bom.gov.au/fwo/IDN60903/IDN60903.94915.json